createdAt,value
2018-06-12T00:01:33.503Z,17.93
2018-06-12T00:04:02.967Z,20.83
2018-06-12T00:06:32.283Z,15.20
2018-06-12T00:09:01.612Z,17.77
2018-06-12T00:11:30.904Z,18.53
2018-06-12T00:14:00.243Z,24.83
2018-06-12T00:16:29.548Z,19.53
2018-06-12T00:18:58.612Z,17.00
2018-06-12T00:21:27.912Z,18.20
2018-06-12T00:23:57.215Z,18.10
2018-06-12T00:26:26.539Z,20.92
2018-06-12T00:28:55.612Z,19.97
2018-06-12T00:31:24.913Z,20.30
2018-06-12T00:33:54.211Z,22.67
2018-06-12T00:36:23.507Z,21.70
2018-06-12T00:38:52.820Z,20.50
2018-06-12T00:41:22.111Z,19.27
2018-06-12T00:43:51.423Z,22.73
2018-06-12T00:46:20.725Z,21.65
2018-06-12T00:48:50.073Z,22.43
2018-06-12T00:51:19.379Z,21.87
2018-06-12T00:53:48.681Z,22.97
2018-06-12T00:56:35.198Z,22.65
2018-06-12T00:59:04.511Z,21.43
2018-06-12T01:01:33.809Z,22.53
2018-06-12T01:04:03.108Z,16.70
2018-06-12T01:06:32.472Z,22.00
2018-06-12T01:09:01.520Z,20.17
2018-06-12T01:11:30.888Z,20.80
2018-06-12T01:13:59.919Z,21.47
2018-06-12T01:16:29.228Z,20.13
2018-06-12T01:18:58.528Z,20.13
2018-06-12T01:21:27.587Z,21.70
2018-06-12T01:23:56.908Z,23.83
2018-06-12T01:26:26.212Z,21.70
2018-06-12T01:28:55.532Z,20.17
2018-06-12T01:31:24.836Z,21.57
2018-06-12T01:33:54.139Z,23.53
2018-06-12T01:36:23.448Z,20.25
2018-06-12T01:38:52.751Z,21.30
2018-06-12T01:41:22.065Z,20.70
2018-06-12T01:43:51.347Z,20.83
2018-06-12T01:46:20.684Z,20.65
2018-06-12T01:48:49.976Z,23.50
2018-06-12T01:51:19.283Z,22.13
2018-06-12T01:53:48.593Z,22.90
2018-06-12T01:56:17.892Z,22.77
2018-06-12T01:58:47.215Z,25.60
2018-06-12T02:01:16.524Z,25.50
2018-06-12T02:03:45.582Z,21.30
2018-06-12T02:06:14.984Z,25.47
2018-06-12T02:08:44.325Z,20.13
2018-06-12T02:11:13.416Z,23.13
2018-06-12T02:13:42.516Z,21.43
2018-06-12T02:16:11.860Z,22.73
2018-06-12T02:18:41.177Z,24.07
2018-06-12T02:21:10.511Z,26.30
2018-06-12T02:23:39.572Z,24.40
2018-06-12T02:26:09.047Z,25.17
2018-06-12T02:28:38.368Z,22.17
2018-06-12T02:31:07.788Z,24.73
2018-06-12T02:33:37.164Z,27.87
2018-06-12T02:36:06.557Z,26.50
2018-06-12T02:38:35.927Z,24.47
2018-06-12T02:41:05.298Z,25.43
2018-06-12T02:43:34.710Z,27.62
2018-06-12T02:46:04.085Z,22.93
2018-06-12T02:48:33.493Z,23.30
2018-06-12T02:51:02.873Z,26.33
2018-06-12T02:53:32.258Z,24.20
2018-06-12T02:56:01.624Z,23.60
2018-06-12T02:58:30.732Z,24.77
2018-06-12T03:01:00.153Z,23.97
2018-06-12T03:03:29.527Z,26.00
2018-06-12T03:05:58.649Z,27.27
2018-06-12T03:08:28.016Z,26.57
2018-06-12T03:10:57.139Z,28.47
2018-06-12T03:13:26.587Z,26.73
2018-06-12T03:15:55.945Z,25.17
2018-06-12T03:18:25.309Z,27.10
2018-06-12T03:20:54.658Z,26.67
2018-06-12T03:23:24.118Z,25.47
2018-06-12T03:25:58.252Z,24.07
2018-06-12T03:28:27.605Z,26.77
2018-06-12T03:30:56.940Z,25.93
2018-06-12T03:33:26.047Z,31.27
2018-06-12T03:35:55.128Z,25.07
2018-06-12T03:38:24.235Z,30.30
2018-06-12T03:40:53.580Z,24.67
2018-06-12T03:43:22.949Z,26.13
2018-06-12T03:45:52.308Z,25.40
2018-06-12T03:48:21.640Z,27.25
2018-06-12T03:50:50.977Z,41.63
2018-06-12T03:53:20.345Z,25.20
2018-06-12T03:55:49.439Z,24.50
2018-06-12T03:58:18.827Z,26.50
2018-06-12T04:00:48.214Z,27.20
2018-06-12T04:03:17.560Z,24.00
2018-06-12T04:05:46.952Z,25.90
2018-06-12T04:08:16.288Z,25.20
2018-06-12T04:10:45.637Z,22.43
2018-06-12T04:13:15.032Z,23.77
2018-06-12T04:15:44.144Z,29.73
2018-06-12T04:18:13.517Z,29.12
2018-06-12T04:20:42.907Z,26.40
2018-06-12T04:23:12.276Z,25.40
2018-06-12T04:25:41.644Z,25.57
2018-06-12T04:28:11.027Z,24.03
2018-06-12T04:30:40.384Z,27.93
2018-06-12T04:33:09.765Z,22.37
2018-06-12T04:35:39.172Z,22.00
2018-06-12T04:38:09.188Z,28.73
2018-06-12T04:40:38.566Z,23.93
2018-06-12T04:43:07.928Z,24.73
2018-06-12T04:45:37.315Z,26.13
2018-06-12T04:48:06.717Z,29.97
2018-06-12T04:50:36.097Z,24.97
2018-06-12T04:53:05.680Z,28.63
2018-06-12T04:55:34.974Z,30.43
2018-06-12T04:58:04.093Z,26.47
2018-06-12T05:00:33.493Z,24.40
2018-06-12T05:03:02.875Z,26.30
2018-06-12T05:05:32.248Z,33.67
2018-06-12T05:08:01.629Z,24.53
2018-06-12T05:10:31.052Z,31.03
2018-06-12T05:13:00.373Z,28.07
2018-06-12T05:15:29.733Z,30.13
2018-06-12T05:17:59.090Z,26.27
2018-06-12T05:20:28.187Z,25.47
2018-06-12T05:22:57.267Z,24.43
2018-06-12T05:25:26.416Z,25.23
2018-06-12T05:27:55.726Z,23.60
2018-06-12T05:30:25.061Z,24.93
2018-06-12T05:32:54.414Z,24.40
2018-06-12T05:35:23.769Z,20.33
2018-06-12T05:37:52.858Z,24.23
2018-06-12T05:40:21.976Z,27.37
2018-06-12T05:42:51.313Z,24.57
2018-06-12T05:45:20.713Z,23.17
2018-06-12T05:47:50.054Z,24.03
2018-06-12T05:50:19.425Z,22.37
2018-06-12T05:52:48.760Z,19.53
2018-06-12T05:55:18.108Z,19.83
2018-06-12T05:57:47.461Z,20.00
2018-06-12T06:00:16.561Z,20.23
2018-06-12T06:02:45.650Z,17.43
2018-06-12T06:05:14.997Z,21.00
2018-06-12T06:07:44.345Z,18.63
2018-06-12T06:10:13.708Z,20.08
2018-06-12T06:12:43.090Z,19.50
2018-06-12T06:15:12.432Z,19.80
2018-06-12T06:17:41.764Z,20.30
2018-06-12T06:20:10.856Z,19.90
2018-06-12T06:22:39.982Z,21.27
2018-06-12T06:25:09.356Z,20.37
2018-06-12T06:27:38.468Z,18.13
2018-06-12T06:30:08.648Z,15.75
2018-06-12T06:32:38.017Z,18.17
2018-06-12T06:35:07.351Z,14.73
2018-06-12T06:37:36.697Z,16.20
2018-06-12T06:40:06.085Z,13.73
2018-06-12T06:42:35.453Z,17.17
2018-06-12T06:45:04.832Z,18.30
2018-06-12T06:47:34.196Z,18.93
2018-06-12T06:50:03.578Z,20.27
2018-06-12T06:52:32.925Z,16.07
2018-06-12T06:55:02.270Z,17.57
2018-06-12T06:57:31.630Z,17.20
2018-06-12T07:00:00.982Z,22.27
2018-06-12T07:02:30.348Z,17.50
2018-06-12T07:04:59.702Z,15.43
2018-06-12T07:07:29.088Z,18.70
2018-06-12T07:09:58.188Z,16.67
2018-06-12T07:12:27.290Z,18.63
2018-06-12T07:14:56.489Z,20.33
2018-06-12T07:17:25.877Z,16.83
2018-06-12T07:19:54.997Z,16.23
2018-06-12T07:22:24.402Z,17.10
2018-06-12T07:24:53.797Z,16.53
2018-06-12T07:27:23.190Z,15.97
2018-06-12T07:29:52.561Z,20.90
2018-06-12T07:32:21.988Z,20.90
2018-06-12T07:34:51.317Z,19.43
2018-06-12T07:37:20.686Z,17.07
2018-06-12T07:39:50.081Z,17.90
2018-06-12T07:42:19.469Z,16.87
2018-06-12T07:44:48.840Z,15.30
2018-06-12T07:47:18.213Z,16.33
2018-06-12T07:49:47.349Z,16.20
2018-06-12T07:52:16.743Z,15.00
2018-06-12T07:54:46.147Z,16.30
2018-06-12T07:57:15.535Z,12.73
2018-06-12T07:59:44.913Z,24.70
2018-06-12T08:02:14.325Z,26.93
2018-06-12T08:04:43.716Z,26.00
2018-06-12T08:07:12.824Z,28.40
2018-06-12T08:09:42.220Z,27.22
2018-06-12T08:12:11.604Z,22.53
2018-06-12T08:14:40.742Z,30.60
2018-06-12T08:17:10.167Z,24.87
2018-06-12T08:19:39.554Z,36.30
2018-06-12T08:22:09.503Z,29.30
2018-06-12T08:24:38.901Z,27.00
2018-06-12T08:27:08.301Z,27.00
2018-06-12T08:29:37.698Z,26.10
2018-06-12T08:32:07.063Z,29.10
2018-06-12T08:34:36.443Z,26.00
2018-06-12T08:37:05.828Z,26.93
2018-06-12T08:39:35.201Z,28.13
2018-06-12T08:42:04.579Z,30.37
2018-06-12T08:44:33.955Z,25.90
2018-06-12T08:47:03.360Z,27.17
2018-06-12T08:49:32.743Z,28.87
2018-06-12T08:52:01.849Z,25.17
2018-06-12T08:54:31.238Z,25.57
2018-06-12T08:57:00.617Z,26.97
2018-06-12T08:59:29.989Z,21.73
2018-06-12T09:01:59.355Z,26.27
2018-06-12T09:04:28.727Z,28.63
2018-06-12T09:06:58.111Z,30.30
2018-06-12T09:09:27.502Z,27.20
2018-06-12T09:11:56.876Z,25.77
2018-06-12T09:17:25.153Z,27.43
2018-06-12T09:19:54.461Z,29.77
2018-06-12T09:22:23.779Z,33.55
2018-06-12T09:24:53.110Z,26.30
2018-06-12T09:27:22.455Z,28.70
2018-06-12T09:29:51.794Z,28.67
2018-06-12T09:32:21.433Z,26.77
2018-06-12T09:34:50.765Z,26.77
2018-06-12T09:37:20.085Z,28.60
2018-06-12T09:39:49.423Z,30.87
2018-06-12T09:42:18.739Z,26.27
2018-06-12T09:44:48.071Z,28.03
2018-06-12T09:47:17.406Z,29.50
2018-06-12T09:49:46.741Z,27.90
2018-06-12T09:52:16.063Z,29.25
2018-06-12T09:54:45.401Z,28.93
2018-06-12T09:57:14.710Z,28.40
2018-06-12T09:59:44.036Z,25.43
2018-06-12T10:02:13.387Z,25.27
2018-06-12T10:04:42.740Z,26.73
2018-06-12T10:07:12.073Z,26.33
2018-06-12T10:09:41.768Z,24.57
2018-06-12T10:12:11.094Z,26.40
2018-06-12T10:14:40.474Z,23.53
2018-06-12T10:17:09.841Z,23.17
2018-06-12T10:19:39.207Z,21.67
2018-06-12T10:22:09.189Z,22.30
2018-06-12T10:24:38.309Z,24.97
2018-06-12T10:27:07.684Z,23.57
2018-06-12T10:29:36.795Z,20.57
2018-06-12T10:32:06.182Z,21.30
2018-06-12T10:34:35.285Z,22.17
2018-06-12T10:37:05.161Z,22.63
2018-06-12T10:39:34.508Z,20.57
2018-06-12T10:42:03.892Z,20.07
2018-06-12T10:44:32.996Z,21.30
2018-06-12T10:47:02.376Z,21.20
2018-06-12T10:49:31.736Z,20.73
2018-06-12T10:52:01.123Z,19.00
2018-06-12T10:54:30.479Z,18.60
2018-06-12T10:56:59.851Z,22.03
2018-06-12T10:59:29.218Z,22.60
2018-06-12T11:01:58.597Z,20.80
2018-06-12T11:04:27.965Z,22.87
2018-06-12T11:06:57.354Z,20.43
2018-06-12T11:09:26.713Z,26.03
2018-06-12T11:11:56.101Z,24.87
2018-06-12T11:14:25.479Z,22.80
2018-06-12T11:16:54.892Z,24.77
2018-06-12T11:19:24.261Z,29.50
2018-06-12T11:21:53.648Z,26.60
2018-06-12T11:24:23.024Z,26.07
2018-06-12T11:26:52.403Z,29.70
2018-06-12T11:29:21.773Z,28.37
2018-06-12T11:31:51.142Z,26.83
2018-06-12T11:34:20.526Z,29.98
2018-06-12T11:36:49.649Z,27.23
2018-06-12T11:39:19.021Z,25.97
2018-06-12T11:41:48.147Z,25.60
2018-06-12T11:44:17.527Z,24.52
2018-06-12T11:46:46.935Z,24.47
2018-06-12T11:49:16.325Z,27.33
2018-06-12T11:51:45.445Z,25.70
2018-06-12T11:54:14.868Z,23.83
2018-06-12T11:56:44.279Z,28.17
2018-06-12T11:59:13.674Z,25.87
2018-06-12T12:01:43.077Z,26.37
2018-06-12T12:04:12.440Z,25.13
2018-06-12T12:06:41.838Z,24.13
2018-06-12T12:09:10.964Z,21.50
2018-06-12T12:11:40.341Z,28.90
2018-06-12T12:14:09.756Z,27.47
2018-06-12T12:16:39.143Z,26.73
2018-06-12T12:19:08.532Z,25.63
2018-06-12T12:21:37.661Z,25.80
2018-06-12T12:24:07.056Z,23.13
2018-06-12T12:26:36.458Z,23.03
2018-06-12T12:29:05.893Z,22.27
2018-06-12T12:31:35.302Z,22.13
2018-06-12T12:34:04.741Z,18.10
2018-06-12T12:36:33.846Z,21.47
2018-06-12T12:39:03.369Z,19.93
2018-06-12T12:41:32.762Z,18.63
2018-06-12T12:44:02.144Z,17.20
2018-06-12T12:46:31.526Z,15.30
2018-06-12T12:49:00.936Z,17.40
2018-06-12T12:51:30.057Z,17.97
2018-06-12T12:53:59.428Z,17.03
2018-06-12T12:56:28.800Z,17.13
2018-06-12T12:58:58.167Z,16.27
2018-06-12T13:01:27.545Z,15.33
2018-06-12T13:03:56.677Z,15.00
2018-06-12T13:06:26.040Z,12.98
2018-06-12T13:08:55.161Z,15.60
2018-06-12T13:11:24.549Z,14.07
2018-06-12T13:13:53.692Z,16.03
2018-06-12T13:16:22.691Z,16.90
2018-06-12T13:18:52.007Z,14.90
2018-06-12T13:21:21.308Z,14.53
2018-06-12T13:23:50.613Z,13.80
2018-06-12T13:26:19.924Z,16.20
2018-06-12T13:28:48.992Z,15.07
2018-06-12T13:31:18.308Z,15.13
2018-06-12T13:33:47.675Z,16.90
2018-06-12T13:36:16.920Z,16.37
2018-06-12T13:38:45.983Z,16.10
2018-06-12T13:41:15.292Z,18.07
2018-06-12T13:43:44.603Z,16.87
2018-06-12T13:46:13.911Z,16.62
2018-06-12T13:48:43.211Z,18.10
2018-06-12T13:51:12.271Z,15.73
2018-06-12T13:53:41.593Z,14.80
2018-06-12T13:56:10.903Z,15.10
2018-06-12T13:58:39.978Z,18.60
2018-06-12T14:01:09.292Z,14.07
2018-06-12T14:03:38.634Z,18.93
2018-06-12T14:06:07.945Z,16.20
2018-06-12T14:08:37.262Z,16.30
2018-06-12T14:11:06.579Z,17.27
2018-06-12T14:13:35.993Z,18.20
2018-06-12T14:16:05.324Z,17.23
2018-06-12T14:18:34.696Z,15.50
2018-06-12T14:21:04.064Z,19.80
2018-06-12T14:23:33.415Z,17.67
2018-06-12T14:26:02.562Z,20.70
2018-06-12T14:28:31.916Z,19.63
2018-06-12T14:31:01.015Z,18.57
2018-06-12T14:33:30.381Z,18.67
2018-06-12T14:35:59.765Z,20.50
2018-06-12T14:38:29.207Z,19.37
2018-06-12T14:40:58.590Z,20.37
2018-06-12T14:43:27.996Z,22.67
2018-06-12T14:45:57.388Z,19.57
2018-06-12T14:48:26.763Z,19.42
2018-06-12T14:50:56.155Z,20.33
2018-06-12T14:53:25.565Z,20.70
2018-06-12T14:55:54.951Z,21.53
2018-06-12T14:58:24.319Z,17.52
2018-06-12T15:00:53.688Z,22.33
2018-06-12T15:03:23.054Z,20.50
2018-06-12T15:05:52.408Z,22.87
2018-06-12T15:08:21.771Z,22.87
2018-06-12T15:10:51.148Z,20.30
2018-06-12T15:13:20.470Z,20.87
2018-06-12T15:15:49.777Z,20.87
2018-06-12T15:18:19.083Z,21.95
2018-06-12T15:20:48.380Z,20.47
2018-06-12T15:23:17.692Z,20.83
2018-06-12T15:25:47.025Z,20.13
2018-06-12T15:28:16.341Z,19.47
2018-06-12T15:30:45.417Z,20.97
2018-06-12T15:33:14.717Z,20.40
2018-06-12T15:35:44.068Z,20.83
2018-06-12T15:38:13.384Z,22.25
2018-06-12T15:40:42.684Z,22.73
2018-06-12T15:43:12.019Z,21.20
2018-06-12T15:45:42.145Z,23.40
2018-06-12T15:48:11.238Z,24.10
2018-06-12T15:50:40.539Z,22.17
2018-06-12T15:53:09.628Z,22.33
2018-06-12T15:55:38.952Z,26.90
2018-06-12T15:58:09.184Z,27.82
2018-06-12T16:00:38.498Z,24.40
2018-06-12T16:03:07.850Z,24.80
2018-06-12T16:05:37.157Z,26.50
2018-06-12T16:08:06.501Z,25.73
2018-06-12T16:10:35.833Z,24.03
2018-06-12T16:13:05.181Z,21.77
2018-06-12T16:15:34.499Z,22.53
2018-06-12T16:18:03.826Z,22.80
2018-06-12T16:20:33.146Z,21.17
2018-06-12T16:23:02.491Z,23.20
2018-06-12T16:25:31.811Z,26.00
2018-06-12T16:28:01.127Z,22.17
2018-06-12T16:30:30.439Z,23.00
2018-06-12T16:32:59.775Z,24.80
2018-06-12T16:35:29.103Z,25.27
2018-06-12T16:37:58.427Z,25.53
2018-06-12T16:40:27.748Z,23.73
2018-06-12T16:42:57.061Z,22.60
2018-06-12T16:45:26.389Z,26.50
2018-06-12T16:47:55.724Z,24.60
2018-06-12T16:50:25.031Z,23.35
2018-06-12T16:52:54.389Z,25.07
2018-06-12T16:55:23.733Z,25.17
2018-06-12T16:57:53.092Z,26.63
2018-06-12T17:00:22.444Z,27.87
2018-06-12T17:02:51.786Z,23.03
2018-06-12T17:05:21.127Z,26.97
2018-06-12T17:07:50.457Z,21.50
2018-06-12T17:10:19.835Z,24.63
2018-06-12T17:12:49.103Z,24.33
2018-06-12T17:15:18.504Z,26.30
2018-06-12T17:17:47.866Z,29.57
2018-06-12T17:20:17.235Z,23.67
2018-06-12T17:22:46.616Z,21.77
2018-06-12T17:25:16.001Z,22.73
2018-06-12T17:27:45.360Z,23.30
2018-06-12T17:30:14.756Z,22.10
2018-06-12T17:32:44.145Z,21.80
2018-06-12T17:35:15.031Z,23.10
2018-06-12T17:37:44.252Z,25.67
2018-06-12T17:40:13.625Z,21.25
2018-06-12T17:42:42.764Z,21.27
2018-06-12T17:45:12.152Z,22.30
2018-06-12T17:47:41.522Z,19.83
2018-06-12T17:50:10.651Z,18.37
2018-06-12T17:52:40.020Z,22.40
2018-06-12T17:55:09.425Z,16.83
2018-06-12T17:57:38.765Z,16.30
2018-06-12T18:00:08.358Z,16.90
2018-06-12T18:02:37.737Z,16.07
2018-06-12T18:05:06.868Z,17.73
2018-06-12T18:07:36.215Z,20.20
2018-06-12T18:10:05.598Z,14.73
2018-06-12T18:12:34.978Z,14.93
2018-06-12T18:15:04.329Z,16.27
2018-06-12T18:17:33.635Z,17.20
2018-06-12T18:20:03.461Z,16.80
2018-06-12T18:22:32.783Z,16.10
2018-06-12T18:25:02.140Z,13.70
2018-06-12T18:27:31.407Z,14.00
2018-06-12T18:30:00.715Z,18.67
2018-06-12T18:32:30.054Z,12.90
2018-06-12T18:34:59.119Z,13.30
2018-06-12T18:37:28.449Z,11.17
2018-06-12T18:39:57.523Z,12.00
2018-06-12T18:42:26.839Z,12.97
2018-06-12T18:44:55.921Z,13.30
2018-06-12T18:47:25.002Z,12.93
2018-06-12T18:49:54.300Z,14.03
2018-06-12T18:52:23.851Z,14.80
2018-06-12T18:54:52.917Z,15.10
2018-06-12T18:57:22.040Z,12.13
2018-06-12T18:59:51.346Z,12.63
2018-06-12T19:02:20.725Z,11.30
2018-06-12T19:04:49.804Z,10.30
2018-06-12T19:07:19.948Z,13.70
2018-06-12T19:09:49.000Z,13.03
2018-06-12T19:12:18.308Z,11.30
2018-06-12T19:14:47.631Z,10.53
2018-06-12T19:17:16.724Z,13.47
2018-06-12T19:19:46.016Z,12.20
2018-06-12T19:22:15.316Z,12.43
2018-06-12T19:24:44.623Z,10.67
2018-06-12T19:27:13.692Z,11.43
2018-06-12T19:29:43.284Z,14.00
2018-06-12T19:32:12.588Z,15.00
2018-06-12T19:34:41.921Z,13.67
2018-06-12T19:37:11.287Z,11.10
2018-06-12T19:39:40.652Z,13.23
2018-06-12T19:42:09.960Z,11.73
2018-06-12T19:44:39.308Z,14.40
2018-06-12T19:47:08.599Z,10.97
2018-06-12T19:49:37.888Z,13.43
2018-06-12T19:52:07.222Z,14.60
2018-06-12T19:54:36.545Z,14.43
2018-06-12T19:57:05.916Z,14.03
2018-06-12T19:59:35.212Z,13.33
2018-06-12T20:02:04.538Z,15.13
2018-06-12T20:04:33.836Z,10.90
2018-06-12T20:07:03.146Z,9.67
2018-06-12T20:09:32.440Z,14.07
2018-06-12T20:12:01.758Z,15.27
2018-06-12T20:14:31.127Z,10.70
2018-06-12T20:17:00.236Z,11.13
2018-06-12T20:19:29.592Z,10.73
2018-06-12T20:21:58.952Z,10.97
2018-06-12T20:24:28.320Z,10.13
2018-06-12T20:26:57.684Z,13.80
2018-06-12T20:29:27.058Z,10.13
2018-06-12T20:31:56.425Z,9.90
2018-06-12T20:34:25.797Z,12.43
2018-06-12T20:36:55.168Z,12.00
2018-06-12T20:39:24.537Z,10.73
2018-06-12T20:41:53.638Z,12.10
2018-06-12T20:44:22.718Z,10.55
2018-06-12T20:46:52.202Z,12.63
2018-06-12T20:49:21.444Z,7.80
2018-06-12T20:51:50.837Z,8.53
2018-06-12T20:54:19.924Z,7.50
2018-06-12T20:56:49.037Z,10.77
2018-06-12T20:59:18.391Z,9.57
2018-06-12T21:01:47.785Z,9.17
2018-06-12T21:04:17.103Z,15.13
2018-06-12T21:06:46.512Z,6.47
2018-06-12T21:09:15.806Z,7.50
2018-06-12T21:11:45.167Z,12.53
2018-06-12T21:14:14.528Z,8.40
2018-06-12T21:16:43.639Z,11.07
2018-06-12T21:19:13.005Z,11.70
2018-06-12T21:21:42.371Z,9.97
2018-06-12T21:24:11.719Z,8.77
2018-06-12T21:26:41.076Z,7.57
2018-06-12T21:29:10.452Z,9.67
2018-06-12T21:31:39.902Z,10.13
2018-06-12T21:34:09.171Z,11.50
2018-06-12T21:36:38.545Z,8.40
2018-06-12T21:39:08.616Z,11.43
2018-06-12T21:41:38.034Z,6.63
2018-06-12T21:44:07.343Z,7.57
2018-06-12T21:46:36.712Z,7.53
2018-06-12T21:49:06.062Z,9.83
2018-06-12T21:51:35.152Z,6.33
2018-06-12T21:54:04.252Z,7.17
2018-06-12T21:56:33.415Z,7.83
2018-06-12T21:59:02.711Z,9.67
2018-06-12T22:01:32.063Z,8.30
2018-06-12T22:04:01.425Z,7.33
2018-06-12T22:06:30.787Z,7.70
2018-06-12T22:09:00.131Z,8.23
2018-06-12T22:11:29.484Z,7.80
2018-06-12T22:13:58.798Z,9.03
2018-06-12T22:16:28.085Z,9.37
2018-06-12T22:18:57.391Z,8.93
2018-06-12T22:21:26.701Z,6.47
2018-06-12T22:23:55.983Z,8.73
2018-06-12T22:26:25.281Z,6.37
2018-06-12T22:28:54.601Z,11.23
2018-06-12T22:31:23.897Z,8.30
2018-06-12T22:33:53.191Z,7.80
2018-06-12T22:36:22.509Z,11.25
2018-06-12T22:38:51.799Z,9.33
2018-06-12T22:41:21.101Z,12.13
2018-06-12T22:43:50.393Z,9.07
2018-06-12T22:46:19.719Z,8.47
2018-06-12T22:48:49.051Z,7.53
2018-06-12T22:51:18.400Z,11.70
2018-06-12T22:53:47.420Z,7.90
2018-06-12T22:56:16.738Z,7.87
2018-06-12T22:58:46.044Z,6.20
2018-06-12T23:01:15.107Z,10.10
2018-06-12T23:03:44.412Z,6.70
2018-06-12T23:06:13.719Z,8.03
2018-06-12T23:08:43.032Z,6.40
2018-06-12T23:11:12.335Z,8.33
2018-06-12T23:13:41.720Z,8.63
2018-06-12T23:16:11.080Z,9.70
2018-06-12T23:18:40.435Z,8.87
2018-06-12T23:21:20.866Z,9.67
2018-06-12T23:23:50.220Z,8.70
2018-06-12T23:26:19.594Z,6.22
2018-06-12T23:28:48.939Z,7.63
2018-06-12T23:31:18.312Z,10.43
2018-06-12T23:33:47.395Z,6.83
2018-06-12T23:36:16.495Z,7.07
2018-06-12T23:38:45.606Z,9.70
2018-06-12T23:41:14.956Z,6.60
2018-06-12T23:43:44.332Z,6.20
2018-06-12T23:46:13.688Z,6.35
2018-06-12T23:48:42.774Z,7.80
2018-06-12T23:51:12.152Z,6.20
2018-06-12T23:53:41.504Z,6.10
2018-06-12T23:56:10.880Z,6.40
2018-06-12T23:58:40.253Z,6.67
